sensor_id;sensor_type;location;lat;lon;timestamp;P1;durP1;ratioP1;P2;durP2;ratioP2
65315;SDS011;51920;53.952;10.292;2023-12-07T00:02:05;105.72;;;33.00;;
65315;SDS011;51920;53.952;10.292;2023-12-07T00:04:32;112.37;;;31.93;;
65315;SDS011;51920;53.952;10.292;2023-12-07T00:06:58;109.53;;;31.55;;
65315;SDS011;51920;53.952;10.292;2023-12-07T00:09:25;116.00;;;34.00;;
65315;SDS011;51920;53.952;10.292;2023-12-07T00:11:51;110.22;;;32.50;;
65315;SDS011;51920;53.952;10.292;2023-12-07T00:14:19;96.63;;;29.63;;
65315;SDS011;51920;53.952;10.292;2023-12-07T00:16:45;108.20;;;30.70;;
65315;SDS011;51920;53.952;10.292;2023-12-07T00:19:12;100.35;;;30.00;;
65315;SDS011;51920;53.952;10.292;2023-12-07T00:21:38;111.63;;;32.63;;
65315;SDS011;51920;53.952;10.292;2023-12-07T00:24:05;109.45;;;31.25;;
65315;SDS011;51920;53.952;10.292;2023-12-07T00:26:32;102.80;;;32.70;;
65315;SDS011;51920;53.952;10.292;2023-12-07T00:28:58;106.83;;;32.30;;
65315;SDS011;51920;53.952;10.292;2023-12-07T00:31:26;95.97;;;29.40;;
65315;SDS011;51920;53.952;10.292;2023-12-07T00:33:52;102.82;;;32.08;;
65315;SDS011;51920;53.952;10.292;2023-12-07T00:36:19;101.40;;;30.83;;
65315;SDS011;51920;53.952;10.292;2023-12-07T00:38:46;109.65;;;31.92;;
65315;SDS011;51920;53.952;10.292;2023-12-07T00:41:12;114.57;;;32.20;;
65315;SDS011;51920;53.952;10.292;2023-12-07T00:43:39;105.32;;;32.55;;
65315;SDS011;51920;53.952;10.292;2023-12-07T00:46:09;111.18;;;33.67;;
65315;SDS011;51920;53.952;10.292;2023-12-07T00:48:36;114.00;;;33.60;;
65315;SDS011;51920;53.952;10.292;2023-12-07T00:51:03;109.28;;;31.77;;
65315;SDS011;51920;53.952;10.292;2023-12-07T00:53:30;109.17;;;31.63;;
65315;SDS011;51920;53.952;10.292;2023-12-07T00:55:56;109.10;;;32.55;;
65315;SDS011;51920;53.952;10.292;2023-12-07T00:58:23;127.88;;;34.40;;
65315;SDS011;51920;53.952;10.292;2023-12-07T01:00:49;121.32;;;33.92;;
65315;SDS011;51920;53.952;10.292;2023-12-07T01:03:16;118.05;;;31.50;;
65315;SDS011;51920;53.952;10.292;2023-12-07T01:05:42;122.87;;;32.53;;
65315;SDS011;51920;53.952;10.292;2023-12-07T01:08:09;118.80;;;32.88;;
65315;SDS011;51920;53.952;10.292;2023-12-07T01:10:36;119.15;;;32.38;;
65315;SDS011;51920;53.952;10.292;2023-12-07T01:13:02;124.88;;;31.67;;
65315;SDS011;51920;53.952;10.292;2023-12-07T01:15:29;134.18;;;34.28;;
65315;SDS011;51920;53.952;10.292;2023-12-07T01:17:55;124.13;;;32.60;;
65315;SDS011;51920;53.952;10.292;2023-12-07T01:20:22;134.15;;;34.10;;
65315;SDS011;51920;53.952;10.292;2023-12-07T01:22:48;124.28;;;33.05;;
65315;SDS011;51920;53.952;10.292;2023-12-07T01:25:15;130.65;;;33.47;;
65315;SDS011;51920;53.952;10.292;2023-12-07T01:27:46;123.68;;;33.60;;
65315;SDS011;51920;53.952;10.292;2023-12-07T01:30:13;137.80;;;32.67;;
65315;SDS011;51920;53.952;10.292;2023-12-07T01:32:39;130.73;;;31.17;;
65315;SDS011;51920;53.952;10.292;2023-12-07T01:35:06;125.78;;;32.75;;
65315;SDS011;51920;53.952;10.292;2023-12-07T01:37:33;131.20;;;34.13;;
65315;SDS011;51920;53.952;10.292;2023-12-07T01:39:59;131.85;;;34.92;;
65315;SDS011;51920;53.952;10.292;2023-12-07T01:42:26;129.43;;;34.03;;
65315;SDS011;51920;53.952;10.292;2023-12-07T01:44:53;132.27;;;33.58;;
65315;SDS011;51920;53.952;10.292;2023-12-07T01:47:20;141.23;;;35.38;;
65315;SDS011;51920;53.952;10.292;2023-12-07T01:49:46;136.40;;;32.65;;
65315;SDS011;51920;53.952;10.292;2023-12-07T01:52:13;128.50;;;32.72;;
65315;SDS011;51920;53.952;10.292;2023-12-07T01:54:39;140.47;;;32.57;;
65315;SDS011;51920;53.952;10.292;2023-12-07T01:57:06;127.35;;;32.45;;
65315;SDS011;51920;53.952;10.292;2023-12-07T01:59:33;134.05;;;32.35;;
65315;SDS011;51920;53.952;10.292;2023-12-07T02:02:01;125.25;;;30.67;;
65315;SDS011;51920;53.952;10.292;2023-12-07T02:04:27;128.10;;;30.10;;
65315;SDS011;51920;53.952;10.292;2023-12-07T02:06:57;126.57;;;30.23;;
65315;SDS011;51920;53.952;10.292;2023-12-07T02:09:28;137.98;;;33.00;;
65315;SDS011;51920;53.952;10.292;2023-12-07T02:11:54;130.48;;;31.95;;
65315;SDS011;51920;53.952;10.292;2023-12-07T02:14:21;142.43;;;32.63;;
65315;SDS011;51920;53.952;10.292;2023-12-07T02:16:53;141.73;;;30.95;;
65315;SDS011;51920;53.952;10.292;2023-12-07T02:19:47;135.47;;;31.77;;
65315;SDS011;51920;53.952;10.292;2023-12-07T02:22:22;139.70;;;32.53;;
65315;SDS011;51920;53.952;10.292;2023-12-07T02:25:06;137.68;;;31.52;;
65315;SDS011;51920;53.952;10.292;2023-12-07T02:27:35;137.85;;;30.70;;
65315;SDS011;51920;53.952;10.292;2023-12-07T02:30:09;132.80;;;29.98;;
65315;SDS011;51920;53.952;10.292;2023-12-07T02:32:37;143.37;;;31.50;;
65315;SDS011;51920;53.952;10.292;2023-12-07T02:35:08;126.18;;;28.85;;
65315;SDS011;51920;53.952;10.292;2023-12-07T02:37:45;129.63;;;30.27;;
65315;SDS011;51920;53.952;10.292;2023-12-07T02:40:14;123.43;;;30.13;;
65315;SDS011;51920;53.952;10.292;2023-12-07T02:42:47;127.68;;;29.20;;
65315;SDS011;51920;53.952;10.292;2023-12-07T02:45:14;130.57;;;29.43;;
65315;SDS011;51920;53.952;10.292;2023-12-07T02:47:41;132.25;;;31.00;;
65315;SDS011;51920;53.952;10.292;2023-12-07T02:50:09;132.38;;;30.05;;
65315;SDS011;51920;53.952;10.292;2023-12-07T02:52:36;139.55;;;30.45;;
65315;SDS011;51920;53.952;10.292;2023-12-07T02:55:03;130.70;;;29.88;;
65315;SDS011;51920;53.952;10.292;2023-12-07T02:57:30;131.73;;;29.93;;
65315;SDS011;51920;53.952;10.292;2023-12-07T02:59:57;136.13;;;30.17;;
65315;SDS011;51920;53.952;10.292;2023-12-07T03:02:23;135.55;;;29.02;;
65315;SDS011;51920;53.952;10.292;2023-12-07T03:04:50;139.40;;;29.98;;
65315;SDS011;51920;53.952;10.292;2023-12-07T03:07:17;130.23;;;28.27;;
65315;SDS011;51920;53.952;10.292;2023-12-07T03:09:43;140.70;;;30.20;;
65315;SDS011;51920;53.952;10.292;2023-12-07T03:12:10;143.38;;;31.48;;
65315;SDS011;51920;53.952;10.292;2023-12-07T03:14:38;132.25;;;30.75;;
65315;SDS011;51920;53.952;10.292;2023-12-07T03:17:05;143.45;;;31.50;;
65315;SDS011;51920;53.952;10.292;2023-12-07T03:19:31;139.70;;;32.38;;
65315;SDS011;51920;53.952;10.292;2023-12-07T03:21:58;143.67;;;30.17;;
65315;SDS011;51920;53.952;10.292;2023-12-07T03:24:25;137.05;;;30.83;;
65315;SDS011;51920;53.952;10.292;2023-12-07T03:26:51;134.70;;;30.42;;
65315;SDS011;51920;53.952;10.292;2023-12-07T03:29:19;143.18;;;30.55;;
65315;SDS011;51920;53.952;10.292;2023-12-07T03:31:45;141.48;;;31.42;;
65315;SDS011;51920;53.952;10.292;2023-12-07T03:34:12;137.37;;;30.37;;
65315;SDS011;51920;53.952;10.292;2023-12-07T03:36:45;143.32;;;31.02;;
65315;SDS011;51920;53.952;10.292;2023-12-07T03:39:13;124.88;;;29.13;;
65315;SDS011;51920;53.952;10.292;2023-12-07T03:41:40;140.00;;;29.58;;
65315;SDS011;51920;53.952;10.292;2023-12-07T03:44:07;128.30;;;30.52;;
65315;SDS011;51920;53.952;10.292;2023-12-07T03:46:34;132.63;;;27.73;;
65315;SDS011;51920;53.952;10.292;2023-12-07T03:49:01;144.27;;;31.38;;
65315;SDS011;51920;53.952;10.292;2023-12-07T03:51:27;130.63;;;28.55;;
65315;SDS011;51920;53.952;10.292;2023-12-07T03:53:54;140.02;;;30.10;;
65315;SDS011;51920;53.952;10.292;2023-12-07T03:56:25;132.05;;;29.92;;
65315;SDS011;51920;53.952;10.292;2023-12-07T03:58:52;134.93;;;30.67;;
65315;SDS011;51920;53.952;10.292;2023-12-07T04:01:23;122.60;;;29.75;;
65315;SDS011;51920;53.952;10.292;2023-12-07T04:03:53;124.82;;;27.17;;
65315;SDS011;51920;53.952;10.292;2023-12-07T04:06:24;129.00;;;28.65;;
65315;SDS011;51920;53.952;10.292;2023-12-07T04:08:51;125.15;;;27.88;;
65315;SDS011;51920;53.952;10.292;2023-12-07T04:11:17;111.40;;;25.37;;
65315;SDS011;51920;53.952;10.292;2023-12-07T04:13:44;115.22;;;26.67;;
65315;SDS011;51920;53.952;10.292;2023-12-07T04:16:13;122.78;;;27.90;;
65315;SDS011;51920;53.952;10.292;2023-12-07T04:18:39;117.65;;;27.52;;
65315;SDS011;51920;53.952;10.292;2023-12-07T04:21:06;119.72;;;28.73;;
65315;SDS011;51920;53.952;10.292;2023-12-07T04:23:32;118.13;;;28.17;;
65315;SDS011;51920;53.952;10.292;2023-12-07T04:25:59;121.60;;;29.10;;
65315;SDS011;51920;53.952;10.292;2023-12-07T04:28:26;114.57;;;26.92;;
65315;SDS011;51920;53.952;10.292;2023-12-07T04:30:52;116.57;;;27.45;;
65315;SDS011;51920;53.952;10.292;2023-12-07T04:33:19;110.60;;;27.60;;
65315;SDS011;51920;53.952;10.292;2023-12-07T04:35:46;126.63;;;29.10;;
65315;SDS011;51920;53.952;10.292;2023-12-07T04:38:13;106.47;;;26.45;;
65315;SDS011;51920;53.952;10.292;2023-12-07T04:40:40;102.35;;;26.58;;
65315;SDS011;51920;53.952;10.292;2023-12-07T04:43:08;112.05;;;27.20;;
65315;SDS011;51920;53.952;10.292;2023-12-07T04:45:35;114.78;;;27.13;;
65315;SDS011;51920;53.952;10.292;2023-12-07T04:48:01;110.37;;;26.70;;
65315;SDS011;51920;53.952;10.292;2023-12-07T04:50:28;120.57;;;28.08;;
65315;SDS011;51920;53.952;10.292;2023-12-07T04:52:55;117.72;;;28.02;;
65315;SDS011;51920;53.952;10.292;2023-12-07T04:55:22;112.25;;;26.35;;
65315;SDS011;51920;53.952;10.292;2023-12-07T04:57:48;112.78;;;27.33;;
65315;SDS011;51920;53.952;10.292;2023-12-07T05:00:15;119.13;;;27.97;;
65315;SDS011;51920;53.952;10.292;2023-12-07T05:02:42;115.65;;;27.45;;
65315;SDS011;51920;53.952;10.292;2023-12-07T05:05:08;109.25;;;28.10;;
65315;SDS011;51920;53.952;10.292;2023-12-07T05:07:35;113.30;;;28.17;;
65315;SDS011;51920;53.952;10.292;2023-12-07T05:10:02;102.80;;;26.80;;
65315;SDS011;51920;53.952;10.292;2023-12-07T05:12:29;111.87;;;27.67;;
65315;SDS011;51920;53.952;10.292;2023-12-07T05:14:55;114.10;;;28.17;;
65315;SDS011;51920;53.952;10.292;2023-12-07T05:17:22;98.78;;;26.23;;
65315;SDS011;51920;53.952;10.292;2023-12-07T05:19:48;110.38;;;26.65;;
65315;SDS011;51920;53.952;10.292;2023-12-07T05:22:15;112.95;;;27.65;;
65315;SDS011;51920;53.952;10.292;2023-12-07T05:24:42;115.83;;;26.83;;
65315;SDS011;51920;53.952;10.292;2023-12-07T05:27:08;103.85;;;25.48;;
65315;SDS011;51920;53.952;10.292;2023-12-07T05:29:35;114.63;;;26.27;;
65315;SDS011;51920;53.952;10.292;2023-12-07T05:32:02;111.78;;;26.77;;
65315;SDS011;51920;53.952;10.292;2023-12-07T05:34:30;112.00;;;26.90;;
65315;SDS011;51920;53.952;10.292;2023-12-07T05:36:56;115.57;;;28.83;;
65315;SDS011;51920;53.952;10.292;2023-12-07T05:39:23;110.35;;;25.50;;
65315;SDS011;51920;53.952;10.292;2023-12-07T05:41:49;115.15;;;28.70;;
65315;SDS011;51920;53.952;10.292;2023-12-07T05:44:16;120.38;;;28.17;;
65315;SDS011;51920;53.952;10.292;2023-12-07T05:46:48;124.25;;;28.25;;
65315;SDS011;51920;53.952;10.292;2023-12-07T05:49:15;111.07;;;27.30;;
65315;SDS011;51920;53.952;10.292;2023-12-07T05:51:42;120.40;;;28.00;;
65315;SDS011;51920;53.952;10.292;2023-12-07T05:54:09;115.30;;;28.13;;
65315;SDS011;51920;53.952;10.292;2023-12-07T05:56:36;107.85;;;27.50;;
65315;SDS011;51920;53.952;10.292;2023-12-07T05:59:02;106.07;;;26.70;;
65315;SDS011;51920;53.952;10.292;2023-12-07T06:01:29;112.07;;;28.47;;
65315;SDS011;51920;53.952;10.292;2023-12-07T06:03:56;104.10;;;26.42;;
65315;SDS011;51920;53.952;10.292;2023-12-07T06:06:23;114.60;;;27.55;;
65315;SDS011;51920;53.952;10.292;2023-12-07T06:08:50;104.53;;;26.05;;
65315;SDS011;51920;53.952;10.292;2023-12-07T06:11:17;113.68;;;28.20;;
65315;SDS011;51920;53.952;10.292;2023-12-07T06:13:43;104.33;;;26.23;;
65315;SDS011;51920;53.952;10.292;2023-12-07T06:16:13;108.82;;;26.45;;
65315;SDS011;51920;53.952;10.292;2023-12-07T06:18:40;108.82;;;27.23;;
65315;SDS011;51920;53.952;10.292;2023-12-07T06:21:07;108.72;;;26.67;;
65315;SDS011;51920;53.952;10.292;2023-12-07T06:23:35;120.35;;;27.50;;
65315;SDS011;51920;53.952;10.292;2023-12-07T06:26:01;111.60;;;26.93;;
65315;SDS011;51920;53.952;10.292;2023-12-07T06:28:28;105.57;;;27.55;;
65315;SDS011;51920;53.952;10.292;2023-12-07T06:30:55;112.30;;;26.42;;
65315;SDS011;51920;53.952;10.292;2023-12-07T06:33:23;116.43;;;26.67;;
65315;SDS011;51920;53.952;10.292;2023-12-07T06:35:50;114.40;;;26.50;;
65315;SDS011;51920;53.952;10.292;2023-12-07T06:38:16;111.60;;;27.30;;
65315;SDS011;51920;53.952;10.292;2023-12-07T06:40:45;114.70;;;26.33;;
65315;SDS011;51920;53.952;10.292;2023-12-07T06:43:12;114.70;;;26.23;;
65315;SDS011;51920;53.952;10.292;2023-12-07T06:45:38;108.32;;;25.27;;
65315;SDS011;51920;53.952;10.292;2023-12-07T06:48:05;107.18;;;26.85;;
65315;SDS011;51920;53.952;10.292;2023-12-07T06:50:32;115.03;;;27.57;;
65315;SDS011;51920;53.952;10.292;2023-12-07T06:52:59;113.57;;;27.00;;
65315;SDS011;51920;53.952;10.292;2023-12-07T06:55:25;111.45;;;26.80;;
65315;SDS011;51920;53.952;10.292;2023-12-07T06:57:52;109.25;;;26.08;;
65315;SDS011;51920;53.952;10.292;2023-12-07T07:00:19;113.78;;;26.92;;
65315;SDS011;51920;53.952;10.292;2023-12-07T07:02:47;109.77;;;26.27;;
65315;SDS011;51920;53.952;10.292;2023-12-07T07:05:14;127.43;;;28.95;;
65315;SDS011;51920;53.952;10.292;2023-12-07T07:07:40;113.45;;;30.52;;
65315;SDS011;51920;53.952;10.292;2023-12-07T07:10:07;122.35;;;33.22;;
65315;SDS011;51920;53.952;10.292;2023-12-07T07:12:36;119.30;;;28.67;;
65315;SDS011;51920;53.952;10.292;2023-12-07T07:15:02;125.70;;;29.53;;
65315;SDS011;51920;53.952;10.292;2023-12-07T07:17:29;130.93;;;28.42;;
65315;SDS011;51920;53.952;10.292;2023-12-07T07:19:56;116.90;;;27.35;;
65315;SDS011;51920;53.952;10.292;2023-12-07T07:22:22;133.30;;;29.52;;
65315;SDS011;51920;53.952;10.292;2023-12-07T07:24:49;120.47;;;28.13;;
65315;SDS011;51920;53.952;10.292;2023-12-07T07:27:15;112.73;;;27.93;;
65315;SDS011;51920;53.952;10.292;2023-12-07T07:29:42;111.68;;;26.13;;
65315;SDS011;51920;53.952;10.292;2023-12-07T07:32:09;124.90;;;27.55;;
65315;SDS011;51920;53.952;10.292;2023-12-07T07:34:36;126.72;;;27.98;;
65315;SDS011;51920;53.952;10.292;2023-12-07T07:37:03;124.53;;;28.23;;
65315;SDS011;51920;53.952;10.292;2023-12-07T07:39:30;131.93;;;29.70;;
65315;SDS011;51920;53.952;10.292;2023-12-07T07:41:57;118.57;;;28.30;;
65315;SDS011;51920;53.952;10.292;2023-12-07T07:44:24;129.10;;;28.33;;
65315;SDS011;51920;53.952;10.292;2023-12-07T07:46:50;112.20;;;26.63;;
65315;SDS011;51920;53.952;10.292;2023-12-07T07:49:17;130.18;;;28.98;;
65315;SDS011;51920;53.952;10.292;2023-12-07T07:51:43;139.53;;;29.20;;
65315;SDS011;51920;53.952;10.292;2023-12-07T07:54:10;121.90;;;28.88;;
65315;SDS011;51920;53.952;10.292;2023-12-07T07:56:36;121.63;;;28.40;;
65315;SDS011;51920;53.952;10.292;2023-12-07T07:59:03;123.53;;;28.55;;
65315;SDS011;51920;53.952;10.292;2023-12-07T08:01:30;125.88;;;30.00;;
65315;SDS011;51920;53.952;10.292;2023-12-07T08:03:56;119.90;;;29.50;;
65315;SDS011;51920;53.952;10.292;2023-12-07T08:06:23;121.97;;;27.73;;
65315;SDS011;51920;53.952;10.292;2023-12-07T08:08:49;122.38;;;29.13;;
65315;SDS011;51920;53.952;10.292;2023-12-07T08:11:16;120.85;;;29.10;;
65315;SDS011;51920;53.952;10.292;2023-12-07T08:13:43;116.18;;;27.45;;
65315;SDS011;51920;53.952;10.292;2023-12-07T08:16:10;126.80;;;29.23;;
65315;SDS011;51920;53.952;10.292;2023-12-07T08:18:36;117.25;;;28.10;;
65315;SDS011;51920;53.952;10.292;2023-12-07T08:21:04;122.93;;;29.35;;
65315;SDS011;51920;53.952;10.292;2023-12-07T08:23:30;122.53;;;29.30;;
65315;SDS011;51920;53.952;10.292;2023-12-07T08:25:57;117.10;;;28.45;;
65315;SDS011;51920;53.952;10.292;2023-12-07T08:28:24;115.73;;;27.87;;
65315;SDS011;51920;53.952;10.292;2023-12-07T08:30:51;116.07;;;29.52;;
65315;SDS011;51920;53.952;10.292;2023-12-07T08:33:17;115.10;;;29.13;;
65315;SDS011;51920;53.952;10.292;2023-12-07T08:35:44;117.72;;;29.58;;
65315;SDS011;51920;53.952;10.292;2023-12-07T08:38:11;121.75;;;30.42;;
65315;SDS011;51920;53.952;10.292;2023-12-07T08:40:37;119.15;;;29.55;;
65315;SDS011;51920;53.952;10.292;2023-12-07T08:43:04;102.97;;;27.35;;
65315;SDS011;51920;53.952;10.292;2023-12-07T08:45:31;113.60;;;28.88;;
65315;SDS011;51920;53.952;10.292;2023-12-07T08:47:58;114.47;;;29.40;;
65315;SDS011;51920;53.952;10.292;2023-12-07T08:50:24;105.25;;;28.88;;
65315;SDS011;51920;53.952;10.292;2023-12-07T08:52:51;111.90;;;28.93;;
65315;SDS011;51920;53.952;10.292;2023-12-07T08:55:18;105.57;;;27.63;;
65315;SDS011;51920;53.952;10.292;2023-12-07T08:57:45;105.68;;;29.42;;
65315;SDS011;51920;53.952;10.292;2023-12-07T09:00:12;108.65;;;30.55;;
65315;SDS011;51920;53.952;10.292;2023-12-07T09:02:39;114.55;;;31.10;;
65315;SDS011;51920;53.952;10.292;2023-12-07T09:05:07;110.80;;;30.27;;
65315;SDS011;51920;53.952;10.292;2023-12-07T09:07:35;107.88;;;29.50;;
65315;SDS011;51920;53.952;10.292;2023-12-07T09:10:01;100.93;;;29.13;;
65315;SDS011;51920;53.952;10.292;2023-12-07T09:12:29;105.68;;;29.92;;
65315;SDS011;51920;53.952;10.292;2023-12-07T09:14:56;105.63;;;29.80;;
65315;SDS011;51920;53.952;10.292;2023-12-07T09:17:23;118.17;;;30.93;;
65315;SDS011;51920;53.952;10.292;2023-12-07T09:19:50;109.57;;;30.85;;
65315;SDS011;51920;53.952;10.292;2023-12-07T09:22:16;111.20;;;29.88;;
65315;SDS011;51920;53.952;10.292;2023-12-07T09:24:44;122.40;;;31.02;;
65315;SDS011;51920;53.952;10.292;2023-12-07T09:27:11;114.78;;;31.80;;
65315;SDS011;51920;53.952;10.292;2023-12-07T09:29:39;108.43;;;31.00;;
65315;SDS011;51920;53.952;10.292;2023-12-07T09:32:07;102.85;;;28.98;;
65315;SDS011;51920;53.952;10.292;2023-12-07T09:34:34;116.93;;;31.63;;
65315;SDS011;51920;53.952;10.292;2023-12-07T09:37:09;103.38;;;29.55;;
65315;SDS011;51920;53.952;10.292;2023-12-07T09:39:36;108.95;;;30.02;;
65315;SDS011;51920;53.952;10.292;2023-12-07T09:42:03;104.03;;;31.33;;
65315;SDS011;51920;53.952;10.292;2023-12-07T09:44:30;103.47;;;31.00;;
65315;SDS011;51920;53.952;10.292;2023-12-07T09:46:56;97.47;;;30.95;;
65315;SDS011;51920;53.952;10.292;2023-12-07T09:49:23;101.55;;;29.73;;
65315;SDS011;51920;53.952;10.292;2023-12-07T09:51:50;108.57;;;31.00;;
65315;SDS011;51920;53.952;10.292;2023-12-07T09:54:17;108.30;;;30.07;;
65315;SDS011;51920;53.952;10.292;2023-12-07T09:56:46;100.18;;;29.48;;
65315;SDS011;51920;53.952;10.292;2023-12-07T09:59:13;97.35;;;29.60;;
65315;SDS011;51920;53.952;10.292;2023-12-07T10:01:39;104.65;;;30.08;;
65315;SDS011;51920;53.952;10.292;2023-12-07T10:04:16;104.18;;;30.27;;
65315;SDS011;51920;53.952;10.292;2023-12-07T10:06:43;108.17;;;29.00;;
65315;SDS011;51920;53.952;10.292;2023-12-07T10:09:14;107.25;;;31.40;;
65315;SDS011;51920;53.952;10.292;2023-12-07T10:11:42;106.78;;;29.45;;
65315;SDS011;51920;53.952;10.292;2023-12-07T10:14:10;116.28;;;32.50;;
65315;SDS011;51920;53.952;10.292;2023-12-07T10:16:37;104.43;;;30.60;;
65315;SDS011;51920;53.952;10.292;2023-12-07T10:19:25;108.30;;;31.70;;
65315;SDS011;51920;53.952;10.292;2023-12-07T10:21:52;101.82;;;29.33;;
65315;SDS011;51920;53.952;10.292;2023-12-07T10:24:19;106.93;;;30.27;;
65315;SDS011;51920;53.952;10.292;2023-12-07T10:26:47;104.47;;;30.05;;
65315;SDS011;51920;53.952;10.292;2023-12-07T10:29:18;101.82;;;29.63;;
65315;SDS011;51920;53.952;10.292;2023-12-07T10:31:49;104.60;;;29.33;;
65315;SDS011;51920;53.952;10.292;2023-12-07T10:34:19;96.97;;;28.15;;
65315;SDS011;51920;53.952;10.292;2023-12-07T10:36:46;97.10;;;29.13;;
65315;SDS011;51920;53.952;10.292;2023-12-07T10:39:14;100.03;;;30.15;;
65315;SDS011;51920;53.952;10.292;2023-12-07T10:41:43;101.95;;;29.73;;
65315;SDS011;51920;53.952;10.292;2023-12-07T10:44:13;103.80;;;30.20;;
65315;SDS011;51920;53.952;10.292;2023-12-07T10:46:41;93.90;;;28.63;;
65315;SDS011;51920;53.952;10.292;2023-12-07T10:49:11;100.25;;;30.83;;
65315;SDS011;51920;53.952;10.292;2023-12-07T10:54:14;97.95;;;28.65;;
65315;SDS011;51920;53.952;10.292;2023-12-07T10:56:43;93.17;;;28.80;;
65315;SDS011;51920;53.952;10.292;2023-12-07T10:59:11;92.10;;;27.52;;
65315;SDS011;51920;53.952;10.292;2023-12-07T11:01:42;98.25;;;28.80;;
65315;SDS011;51920;53.952;10.292;2023-12-07T11:04:11;106.22;;;29.85;;
65315;SDS011;51920;53.952;10.292;2023-12-07T11:06:40;101.43;;;29.90;;
65315;SDS011;51920;53.952;10.292;2023-12-07T11:09:08;106.03;;;30.53;;
65315;SDS011;51920;53.952;10.292;2023-12-07T11:11:47;98.78;;;28.77;;
65315;SDS011;51920;53.952;10.292;2023-12-07T11:14:18;99.93;;;28.65;;
65315;SDS011;51920;53.952;10.292;2023-12-07T11:16:45;95.35;;;29.35;;
65315;SDS011;51920;53.952;10.292;2023-12-07T11:22:11;92.70;;;27.37;;
65315;SDS011;51920;53.952;10.292;2023-12-07T11:27:37;105.55;;;30.60;;
65315;SDS011;51920;53.952;10.292;2023-12-07T11:30:04;106.97;;;30.40;;
65315;SDS011;51920;53.952;10.292;2023-12-07T11:32:31;115.10;;;31.30;;
65315;SDS011;51920;53.952;10.292;2023-12-07T11:35:04;97.23;;;27.43;;
65315;SDS011;51920;53.952;10.292;2023-12-07T11:40:35;97.50;;;29.30;;
65315;SDS011;51920;53.952;10.292;2023-12-07T11:43:02;104.05;;;29.60;;
65315;SDS011;51920;53.952;10.292;2023-12-07T11:45:39;107.78;;;30.40;;
65315;SDS011;51920;53.952;10.292;2023-12-07T11:48:13;94.93;;;28.53;;
65315;SDS011;51920;53.952;10.292;2023-12-07T11:50:52;78.25;;;24.60;;
65315;SDS011;51920;53.952;10.292;2023-12-07T11:53:24;106.47;;;31.70;;
65315;SDS011;51920;53.952;10.292;2023-12-07T11:55:51;104.78;;;30.33;;
65315;SDS011;51920;53.952;10.292;2023-12-07T11:58:19;95.57;;;29.95;;
65315;SDS011;51920;53.952;10.292;2023-12-07T12:00:46;90.47;;;28.43;;
65315;SDS011;51920;53.952;10.292;2023-12-07T12:03:14;86.60;;;27.80;;
65315;SDS011;51920;53.952;10.292;2023-12-07T12:05:41;90.07;;;27.65;;
65315;SDS011;51920;53.952;10.292;2023-12-07T12:08:09;90.85;;;28.90;;
65315;SDS011;51920;53.952;10.292;2023-12-07T12:10:37;94.05;;;28.10;;
65315;SDS011;51920;53.952;10.292;2023-12-07T12:13:04;90.23;;;27.33;;
65315;SDS011;51920;53.952;10.292;2023-12-07T12:15:31;88.20;;;27.27;;
65315;SDS011;51920;53.952;10.292;2023-12-07T12:17:59;85.72;;;28.45;;
65315;SDS011;51920;53.952;10.292;2023-12-07T12:20:28;89.35;;;27.70;;
65315;SDS011;51920;53.952;10.292;2023-12-07T12:22:55;91.85;;;28.00;;
65315;SDS011;51920;53.952;10.292;2023-12-07T12:25:22;75.40;;;23.83;;
65315;SDS011;51920;53.952;10.292;2023-12-07T12:27:55;81.28;;;25.40;;
65315;SDS011;51920;53.952;10.292;2023-12-07T12:30:28;85.95;;;26.92;;
65315;SDS011;51920;53.952;10.292;2023-12-07T12:32:56;86.60;;;26.45;;
65315;SDS011;51920;53.952;10.292;2023-12-07T12:35:23;79.63;;;26.23;;
65315;SDS011;51920;53.952;10.292;2023-12-07T12:37:51;82.27;;;26.70;;
65315;SDS011;51920;53.952;10.292;2023-12-07T12:40:18;83.43;;;26.42;;
65315;SDS011;51920;53.952;10.292;2023-12-07T12:42:46;81.00;;;26.80;;
65315;SDS011;51920;53.952;10.292;2023-12-07T12:45:15;82.43;;;26.33;;
65315;SDS011;51920;53.952;10.292;2023-12-07T12:47:42;77.50;;;25.10;;
65315;SDS011;51920;53.952;10.292;2023-12-07T12:50:10;84.43;;;27.97;;
65315;SDS011;51920;53.952;10.292;2023-12-07T12:52:41;77.72;;;25.13;;
65315;SDS011;51920;53.952;10.292;2023-12-07T12:55:09;81.53;;;26.55;;
65315;SDS011;51920;53.952;10.292;2023-12-07T12:57:37;92.85;;;27.98;;
65315;SDS011;51920;53.952;10.292;2023-12-07T13:00:04;83.40;;;27.20;;
65315;SDS011;51920;53.952;10.292;2023-12-07T13:02:33;93.27;;;28.20;;
65315;SDS011;51920;53.952;10.292;2023-12-07T13:05:00;79.65;;;26.88;;
65315;SDS011;51920;53.952;10.292;2023-12-07T13:07:29;86.93;;;27.80;;
65315;SDS011;51920;53.952;10.292;2023-12-07T13:09:55;83.03;;;28.00;;
65315;SDS011;51920;53.952;10.292;2023-12-07T13:12:22;79.00;;;26.25;;
65315;SDS011;51920;53.952;10.292;2023-12-07T13:14:55;74.77;;;24.23;;
65315;SDS011;51920;53.952;10.292;2023-12-07T13:17:22;80.63;;;27.73;;
65315;SDS011;51920;53.952;10.292;2023-12-07T13:19:50;86.40;;;27.52;;
65315;SDS011;51920;53.952;10.292;2023-12-07T13:22:17;78.75;;;26.13;;
65315;SDS011;51920;53.952;10.292;2023-12-07T13:24:45;79.68;;;26.70;;
65315;SDS011;51920;53.952;10.292;2023-12-07T13:27:14;80.80;;;25.23;;
65315;SDS011;51920;53.952;10.292;2023-12-07T13:29:41;73.95;;;25.05;;
65315;SDS011;51920;53.952;10.292;2023-12-07T13:32:08;70.00;;;23.58;;
65315;SDS011;51920;53.952;10.292;2023-12-07T13:34:36;77.00;;;24.33;;
65315;SDS011;51920;53.952;10.292;2023-12-07T13:37:02;82.20;;;25.60;;
65315;SDS011;51920;53.952;10.292;2023-12-07T13:39:29;82.33;;;25.70;;
65315;SDS011;51920;53.952;10.292;2023-12-07T13:41:57;81.97;;;25.25;;
65315;SDS011;51920;53.952;10.292;2023-12-07T13:44:26;81.47;;;26.17;;
65315;SDS011;51920;53.952;10.292;2023-12-07T13:46:53;82.43;;;26.25;;
65315;SDS011;51920;53.952;10.292;2023-12-07T13:49:20;78.25;;;26.00;;
65315;SDS011;51920;53.952;10.292;2023-12-07T13:51:50;76.40;;;23.13;;
65315;SDS011;51920;53.952;10.292;2023-12-07T13:54:17;91.75;;;28.55;;
65315;SDS011;51920;53.952;10.292;2023-12-07T13:56:48;88.40;;;27.83;;
65315;SDS011;51920;53.952;10.292;2023-12-07T13:59:15;91.85;;;26.55;;
65315;SDS011;51920;53.952;10.292;2023-12-07T14:01:41;90.72;;;27.35;;
65315;SDS011;51920;53.952;10.292;2023-12-07T14:04:08;86.97;;;27.43;;
65315;SDS011;51920;53.952;10.292;2023-12-07T14:06:36;84.10;;;25.55;;
65315;SDS011;51920;53.952;10.292;2023-12-07T14:09:04;92.00;;;27.20;;
65315;SDS011;51920;53.952;10.292;2023-12-07T14:11:30;86.25;;;26.08;;
65315;SDS011;51920;53.952;10.292;2023-12-07T14:13:57;87.75;;;26.23;;